createdAt,value
2023-01-23T00:02:11.762Z,23.13
2023-01-23T00:07:14.009Z,23.27
2023-01-23T00:12:15.691Z,21.00
2023-01-23T00:17:17.363Z,25.80
2023-01-23T00:22:19.134Z,26.13
2023-01-23T00:27:22.041Z,24.35
2023-01-23T00:32:23.771Z,25.03
2023-01-23T00:37:25.668Z,25.87
2023-01-23T00:42:27.794Z,24.67
2023-01-23T00:47:29.526Z,24.57
2023-01-23T00:52:31.385Z,21.77
2023-01-23T00:57:33.153Z,23.50
2023-01-23T01:02:34.859Z,21.97
2023-01-23T01:07:36.539Z,26.40
2023-01-23T01:12:38.786Z,23.53
2023-01-23T01:17:40.870Z,25.15
2023-01-23T01:22:42.576Z,27.92
2023-01-23T01:27:44.431Z,21.37
2023-01-23T01:32:46.401Z,22.95
2023-01-23T01:37:49.812Z,22.83
2023-01-23T01:43:01.113Z,19.17
2023-01-23T01:48:03.007Z,24.38
2023-01-23T01:53:05.240Z,20.15
2023-01-23T02:03:09.995Z,21.10
2023-01-23T02:08:35.068Z,21.17
2023-01-23T02:13:39.751Z,22.33
2023-01-23T02:18:45.631Z,21.58
2023-01-23T02:24:11.878Z,21.58
2023-01-23T02:29:15.213Z,22.30
2023-01-23T02:34:22.788Z,24.08
2023-01-23T02:39:25.640Z,19.75
2023-01-23T02:44:34.164Z,20.63
2023-01-23T02:49:40.372Z,22.27
2023-01-23T02:54:43.394Z,22.40
2023-01-23T03:00:03.978Z,25.10
2023-01-23T03:05:10.133Z,23.05
2023-01-23T03:10:12.507Z,21.55
2023-01-23T03:15:17.902Z,19.02
2023-01-23T03:20:23.175Z,19.63
2023-01-23T03:25:24.879Z,20.60
2023-01-23T03:30:28.328Z,20.02
2023-01-23T03:35:30.229Z,19.97
2023-01-23T03:40:50.659Z,21.73
2023-01-23T03:45:53.884Z,17.83
2023-01-23T03:50:56.569Z,20.20
2023-01-23T03:55:59.003Z,23.27
2023-01-23T04:01:03.475Z,20.77
2023-01-23T04:06:08.839Z,23.13
2023-01-23T04:11:12.701Z,22.15
2023-01-23T04:16:16.090Z,19.30
2023-01-23T04:21:18.465Z,20.63
2023-01-23T04:26:20.327Z,23.30
2023-01-23T04:31:22.380Z,20.33
2023-01-23T04:36:24.258Z,22.92
2023-01-23T04:41:29.235Z,23.87
2023-01-23T04:46:38.870Z,21.58
2023-01-23T04:51:47.992Z,23.02
2023-01-23T04:56:50.033Z,18.45
2023-01-23T05:01:53.725Z,19.70
2023-01-23T05:06:56.505Z,21.35
2023-01-23T05:11:58.349Z,21.00
2023-01-23T05:17:01.843Z,20.63
2023-01-23T05:22:07.471Z,22.95
2023-01-23T05:27:09.350Z,25.50
2023-01-23T05:32:14.589Z,22.75
2023-01-23T05:37:28.650Z,24.55
2023-01-23T05:42:38.436Z,25.80
2023-01-23T05:48:02.960Z,22.23
2023-01-23T05:53:06.333Z,25.08
2023-01-23T05:58:10.839Z,25.27
2023-01-23T06:03:42.560Z,26.17
2023-01-23T06:14:07.299Z,28.30
2023-01-23T06:19:10.169Z,29.63
2023-01-23T06:24:12.714Z,30.17
2023-01-23T06:29:14.471Z,30.63
2023-01-23T06:34:16.748Z,30.35
2023-01-23T06:39:30.186Z,34.20
2023-01-23T06:44:34.487Z,31.45
2023-01-23T06:49:36.607Z,31.75
2023-01-23T06:54:39.180Z,35.15
2023-01-23T06:59:41.979Z,20.25
2023-01-23T07:04:45.993Z,33.05
2023-01-23T07:09:47.977Z,34.00
2023-01-23T07:14:54.018Z,35.83
2023-01-23T07:20:05.257Z,35.08
2023-01-23T07:25:09.012Z,35.85
2023-01-23T07:30:11.413Z,39.40
2023-01-23T07:35:14.183Z,38.83
2023-01-23T07:40:16.058Z,36.77
2023-01-23T07:45:18.289Z,35.20
2023-01-23T07:50:20.337Z,39.15
2023-01-23T07:55:22.069Z,36.70
2023-01-23T08:00:25.708Z,36.10
2023-01-23T08:05:28.769Z,36.25
2023-01-23T08:10:30.594Z,41.17
2023-01-23T08:15:32.445Z,39.30
2023-01-23T08:20:34.111Z,39.80
2023-01-23T08:25:37.846Z,39.57
2023-01-23T08:30:39.564Z,39.92
2023-01-23T08:35:49.191Z,40.00
2023-01-23T08:40:52.890Z,38.92
2023-01-23T08:45:56.724Z,42.00
2023-01-23T08:51:07.281Z,41.42
2023-01-23T08:56:20.370Z,42.47
2023-01-23T09:01:24.695Z,39.53
2023-01-23T09:06:26.559Z,39.20
2023-01-23T09:11:28.220Z,39.90
2023-01-23T09:16:29.986Z,37.25
2023-01-23T09:21:32.088Z,40.22
2023-01-23T09:26:33.727Z,41.77
2023-01-23T09:31:35.387Z,47.42
2023-01-23T09:36:43.166Z,41.73
2023-01-23T09:41:46.711Z,41.90
2023-01-23T09:46:53.332Z,41.15
2023-01-23T09:52:00.798Z,37.13
2023-01-23T09:57:11.508Z,38.72
2023-01-23T10:02:20.320Z,41.33
2023-01-23T10:07:59.213Z,39.92
2023-01-23T10:13:19.830Z,36.78
2023-01-23T10:18:33.537Z,41.25
2023-01-23T10:23:35.225Z,36.28
2023-01-23T10:28:42.974Z,37.75
2023-01-23T10:34:05.608Z,36.55
2023-01-23T10:39:14.994Z,41.25
2023-01-23T10:44:19.353Z,38.08
2023-01-23T10:49:36.466Z,41.10
2023-01-23T10:54:46.956Z,36.60
2023-01-23T11:00:05.001Z,37.30
2023-01-23T11:05:52.045Z,35.95
2023-01-23T11:11:14.339Z,36.22
2023-01-23T11:16:23.780Z,39.58
2023-01-23T11:21:32.493Z,35.53
2023-01-23T11:26:36.689Z,37.28
2023-01-23T11:31:41.502Z,34.10
2023-01-23T11:37:20.945Z,33.20
2023-01-23T11:42:28.490Z,31.60
2023-01-23T11:47:58.970Z,32.83
2023-01-23T11:53:44.105Z,35.75
2023-01-23T11:59:16.521Z,33.78
2023-01-23T12:04:40.235Z,30.75
2023-01-23T12:10:05.513Z,32.47
2023-01-23T12:15:29.346Z,32.00
2023-01-23T12:20:46.179Z,29.08
2023-01-23T12:26:06.136Z,29.77
2023-01-23T12:31:11.032Z,23.88
2023-01-23T12:36:18.788Z,25.48
2023-01-23T12:41:26.555Z,24.63
2023-01-23T12:46:39.535Z,26.20
2023-01-23T12:51:46.491Z,24.17
2023-01-23T13:02:00.919Z,23.92
2023-01-23T13:07:09.864Z,22.92
2023-01-23T13:12:21.791Z,23.23
2023-01-23T13:17:38.171Z,22.77
2023-01-23T13:22:40.018Z,23.30
2023-01-23T13:27:58.361Z,24.13
2023-01-23T13:33:21.383Z,25.77
2023-01-23T13:43:44.336Z,23.55
2023-01-23T14:21:41.144Z,24.00
2023-01-23T14:26:49.570Z,23.40
2023-01-23T14:31:51.920Z,24.65
2023-01-23T14:42:11.617Z,23.58
2023-01-23T14:47:32.891Z,25.65
2023-01-23T14:52:35.917Z,23.65
2023-01-23T14:57:38.695Z,24.43
2023-01-23T15:07:50.883Z,25.35
2023-01-23T15:13:05.726Z,24.98
2023-01-23T15:18:23.052Z,22.70
2023-01-23T15:23:28.383Z,22.88
2023-01-23T15:28:49.155Z,25.08
2023-01-23T15:33:51.128Z,24.58
2023-01-23T15:38:53.907Z,24.23
2023-01-23T15:48:57.199Z,28.98
2023-01-23T15:53:58.999Z,25.63
2023-01-23T15:59:02.677Z,24.53
2023-01-23T16:04:04.633Z,23.80
2023-01-23T16:09:07.104Z,24.23
2023-01-23T16:14:15.497Z,25.63
2023-01-23T16:19:17.537Z,26.45
2023-01-23T16:24:24.046Z,23.53
2023-01-23T16:29:28.651Z,28.50
2023-01-23T16:34:30.754Z,24.73
2023-01-23T16:39:33.348Z,27.27
2023-01-23T16:44:35.065Z,28.20
2023-01-23T16:49:51.390Z,27.70
2023-01-23T16:54:54.782Z,29.10
2023-01-23T16:59:56.676Z,28.63
2023-01-23T17:04:58.412Z,29.43
2023-01-23T17:10:00.120Z,31.92
2023-01-23T17:15:03.418Z,29.67
2023-01-23T17:20:05.754Z,30.60
2023-01-23T17:25:27.393Z,31.30
2023-01-23T17:30:29.303Z,31.40
2023-01-23T17:35:37.241Z,34.77
2023-01-23T17:40:40.551Z,37.55
2023-01-23T17:45:45.445Z,34.95
2023-01-23T17:50:47.256Z,35.97
2023-01-23T17:55:51.331Z,32.40
2023-01-23T18:00:53.864Z,35.63
2023-01-23T18:05:55.587Z,34.15
2023-01-23T18:11:00.965Z,35.35
2023-01-23T18:16:03.041Z,32.80
2023-01-23T18:21:07.065Z,33.08
2023-01-23T18:26:42.861Z,35.92
2023-01-23T18:31:44.559Z,34.90
2023-01-23T18:37:12.627Z,34.57
2023-01-23T18:42:18.856Z,33.60
2023-01-23T18:47:20.912Z,33.03
2023-01-23T18:53:00.988Z,35.23
2023-01-23T18:58:08.833Z,34.53
2023-01-23T19:03:14.827Z,32.83
2023-01-23T19:08:30.779Z,31.75
2023-01-23T19:13:44.746Z,33.80
2023-01-23T19:19:14.529Z,34.35
2023-01-23T19:24:20.406Z,36.63
2023-01-23T19:29:23.310Z,34.60
2023-01-23T19:34:25.306Z,31.98
2023-01-23T19:39:27.008Z,33.83
2023-01-23T19:44:29.997Z,37.93
2023-01-23T19:49:31.859Z,36.22
2023-01-23T19:54:33.734Z,37.43
2023-01-23T19:59:35.516Z,41.03
2023-01-23T20:04:37.215Z,36.45
2023-01-23T20:09:39.133Z,39.35
2023-01-23T20:14:40.830Z,40.27
2023-01-23T20:19:42.553Z,36.90
2023-01-23T20:24:44.190Z,35.20
2023-01-23T20:29:45.821Z,37.55
2023-01-23T20:34:47.524Z,36.80
2023-01-23T20:39:49.230Z,37.97
2023-01-23T20:44:51.283Z,35.03
2023-01-23T20:49:53.065Z,34.50
2023-01-23T20:54:54.774Z,36.25
2023-01-23T20:59:56.758Z,33.83
2023-01-23T21:04:58.406Z,34.60
2023-01-23T21:10:00.379Z,35.77
2023-01-23T21:15:02.046Z,36.22
2023-01-23T21:20:04.074Z,31.52
2023-01-23T21:25:06.587Z,33.22
2023-01-23T21:30:08.910Z,33.28
2023-01-23T21:35:10.648Z,35.17
2023-01-23T21:40:12.917Z,34.92
2023-01-23T21:45:14.919Z,34.55
2023-01-23T21:50:18.188Z,34.53
2023-01-23T21:55:20.137Z,37.90
2023-01-23T22:00:40.690Z,33.23
2023-01-23T22:05:42.479Z,33.85
2023-01-23T22:10:44.287Z,33.43
2023-01-23T22:15:45.981Z,34.13
2023-01-23T22:20:52.575Z,32.93
2023-01-23T22:26:00.178Z,33.92
2023-01-23T22:31:07.027Z,34.13
2023-01-23T22:36:12.133Z,32.25
2023-01-23T22:41:15.096Z,34.30
2023-01-23T22:46:19.224Z,34.20
2023-01-23T22:51:25.879Z,34.97
2023-01-23T22:56:28.547Z,35.67
2023-01-23T23:01:33.197Z,37.33
2023-01-23T23:06:34.887Z,33.75
2023-01-23T23:11:37.354Z,33.15
2023-01-23T23:16:39.127Z,38.97
2023-01-23T23:21:40.803Z,36.70
2023-01-23T23:26:42.456Z,33.67
2023-01-23T23:31:44.143Z,31.90
2023-01-23T23:36:46.369Z,33.33
2023-01-23T23:41:48.346Z,34.97
2023-01-23T23:46:49.999Z,36.73
2023-01-23T23:51:52.675Z,34.07
2023-01-23T23:56:54.351Z,33.78
